sensor_id;sensor_type;location;lat;lon;timestamp;temperature;humidity
14317;DHT22;7242;50.858;6.586;2023-06-22T00:06:43;23.60;99.90
14317;DHT22;7242;50.858;6.586;2023-06-22T00:09:44;23.50;99.90
14317;DHT22;7242;50.858;6.586;2023-06-22T00:15:45;23.60;99.90
14317;DHT22;7242;50.858;6.586;2023-06-22T00:21:48;23.60;99.90
14317;DHT22;7242;50.858;6.586;2023-06-22T00:27:54;23.70;99.90
14317;DHT22;7242;50.858;6.586;2023-06-22T00:33:55;23.70;99.90
14317;DHT22;7242;50.858;6.586;2023-06-22T00:36:56;23.70;99.90
14317;DHT22;7242;50.858;6.586;2023-06-22T00:42:58;23.70;99.90
14317;DHT22;7242;50.858;6.586;2023-06-22T00:49:00;23.70;99.90
14317;DHT22;7242;50.858;6.586;2023-06-22T00:52:02;23.70;99.90
14317;DHT22;7242;50.858;6.586;2023-06-22T00:58:08;23.60;99.90
14317;DHT22;7242;50.858;6.586;2023-06-22T01:01:10;23.60;99.90
14317;DHT22;7242;50.858;6.586;2023-06-22T01:04:11;23.60;99.90
14317;DHT22;7242;50.858;6.586;2023-06-22T01:32:18;23.30;99.90
14317;DHT22;7242;50.858;6.586;2023-06-22T01:35:20;23.20;99.90
14317;DHT22;7242;50.858;6.586;2023-06-22T01:38:21;23.20;99.90
14317;DHT22;7242;50.858;6.586;2023-06-22T01:44:26;23.10;99.90
14317;DHT22;7242;50.858;6.586;2023-06-22T01:47:27;23.10;99.90
14317;DHT22;7242;50.858;6.586;2023-06-22T01:50:28;22.90;99.90
14317;DHT22;7242;50.858;6.586;2023-06-22T01:53:30;23.00;99.90
14317;DHT22;7242;50.858;6.586;2023-06-22T02:05:56;22.90;99.90
14317;DHT22;7242;50.858;6.586;2023-06-22T02:18:05;22.70;99.90
14317;DHT22;7242;50.858;6.586;2023-06-22T02:27:08;22.70;99.90
14317;DHT22;7242;50.858;6.586;2023-06-22T02:30:11;22.60;99.90
14317;DHT22;7242;50.858;6.586;2023-06-22T02:39:22;22.80;99.90
14317;DHT22;7242;50.858;6.586;2023-06-22T02:42:23;22.90;99.90
14317;DHT22;7242;50.858;6.586;2023-06-22T02:45:24;22.90;99.90
14317;DHT22;7242;50.858;6.586;2023-06-22T02:54:28;23.00;99.90
14317;DHT22;7242;50.858;6.586;2023-06-22T02:57:29;23.00;99.90
14317;DHT22;7242;50.858;6.586;2023-06-22T03:03:32;22.90;99.90
14317;DHT22;7242;50.858;6.586;2023-06-22T03:24:41;22.50;99.90
14317;DHT22;7242;50.858;6.586;2023-06-22T03:33:45;22.50;99.90
14317;DHT22;7242;50.858;6.586;2023-06-22T03:39:47;22.50;99.90
14317;DHT22;7242;50.858;6.586;2023-06-22T03:42:49;22.50;99.90
14317;DHT22;7242;50.858;6.586;2023-06-22T03:45:50;22.50;99.90
14317;DHT22;7242;50.858;6.586;2023-06-22T03:51:51;22.40;99.90
14317;DHT22;7242;50.858;6.586;2023-06-22T04:03:58;22.50;99.90
14317;DHT22;7242;50.858;6.586;2023-06-22T04:31:12;22.70;99.90
14317;DHT22;7242;50.858;6.586;2023-06-22T04:37:16;22.70;99.90
14317;DHT22;7242;50.858;6.586;2023-06-22T04:40:17;22.70;99.90
14317;DHT22;7242;50.858;6.586;2023-06-22T04:46:19;22.80;99.90
14317;DHT22;7242;50.858;6.586;2023-06-22T04:49:21;22.80;99.90
14317;DHT22;7242;50.858;6.586;2023-06-22T04:55:25;22.90;99.90
14317;DHT22;7242;50.858;6.586;2023-06-22T04:58:26;23.00;99.90
14317;DHT22;7242;50.858;6.586;2023-06-22T05:01:29;23.00;99.90
14317;DHT22;7242;50.858;6.586;2023-06-22T05:04:32;23.00;99.90
14317;DHT22;7242;50.858;6.586;2023-06-22T05:07:36;23.00;99.90
14317;DHT22;7242;50.858;6.586;2023-06-22T05:13:38;22.80;99.90
14317;DHT22;7242;50.858;6.586;2023-06-22T05:22:48;22.80;99.90
14317;DHT22;7242;50.858;6.586;2023-06-22T05:28:50;22.80;99.90
14317;DHT22;7242;50.858;6.586;2023-06-22T05:37:52;22.90;99.90
14317;DHT22;7242;50.858;6.586;2023-06-22T05:43:54;23.00;99.90
14317;DHT22;7242;50.858;6.586;2023-06-22T05:52:57;23.20;99.90
14317;DHT22;7242;50.858;6.586;2023-06-22T05:58:58;23.50;99.90
14317;DHT22;7242;50.858;6.586;2023-06-22T06:01:59;23.70;99.90
14317;DHT22;7242;50.858;6.586;2023-06-22T06:11:05;24.50;99.90
14317;DHT22;7242;50.858;6.586;2023-06-22T06:23:10;24.50;99.90
14317;DHT22;7242;50.858;6.586;2023-06-22T06:29:12;24.40;99.90
14317;DHT22;7242;50.858;6.586;2023-06-22T06:38:16;24.70;99.90
14317;DHT22;7242;50.858;6.586;2023-06-22T06:44:18;25.00;99.90
14317;DHT22;7242;50.858;6.586;2023-06-22T06:53:21;26.30;99.90
14317;DHT22;7242;50.858;6.586;2023-06-22T06:59:22;26.90;99.90
14317;DHT22;7242;50.858;6.586;2023-06-22T07:05:24;27.40;99.90
14317;DHT22;7242;50.858;6.586;2023-06-22T07:08:25;28.00;99.90
14317;DHT22;7242;50.858;6.586;2023-06-22T07:11:27;29.10;99.90
14317;DHT22;7242;50.858;6.586;2023-06-22T07:17:29;32.10;99.90
14317;DHT22;7242;50.858;6.586;2023-06-22T07:20:29;32.90;99.90
14317;DHT22;7242;50.858;6.586;2023-06-22T07:23:30;33.50;99.90
14317;DHT22;7242;50.858;6.586;2023-06-22T07:32:33;33.60;99.90
14317;DHT22;7242;50.858;6.586;2023-06-22T07:35:34;33.30;99.90
14317;DHT22;7242;50.858;6.586;2023-06-22T07:38:34;33.50;99.90
14317;DHT22;7242;50.858;6.586;2023-06-22T07:41:35;34.20;99.90
14317;DHT22;7242;50.858;6.586;2023-06-22T07:44:36;35.10;99.90
14317;DHT22;7242;50.858;6.586;2023-06-22T07:47:37;35.90;99.90
14317;DHT22;7242;50.858;6.586;2023-06-22T07:53:42;36.90;99.90
14317;DHT22;7242;50.858;6.586;2023-06-22T07:56:43;37.10;99.90
14317;DHT22;7242;50.858;6.586;2023-06-22T08:02:45;37.20;99.90
14317;DHT22;7242;50.858;6.586;2023-06-22T08:08:49;37.10;99.90
14317;DHT22;7242;50.858;6.586;2023-06-22T08:11:50;36.20;99.90
14317;DHT22;7242;50.858;6.586;2023-06-22T08:14:50;35.70;99.90
14317;DHT22;7242;50.858;6.586;2023-06-22T08:17:51;35.60;99.90
14317;DHT22;7242;50.858;6.586;2023-06-22T08:20:53;35.50;99.90
14317;DHT22;7242;50.858;6.586;2023-06-22T08:23:53;35.50;99.90
14317;DHT22;7242;50.858;6.586;2023-06-22T08:26:54;35.10;99.90
14317;DHT22;7242;50.858;6.586;2023-06-22T08:35:59;35.00;99.90
14317;DHT22;7242;50.858;6.586;2023-06-22T08:45:04;33.20;99.90
14317;DHT22;7242;50.858;6.586;2023-06-22T08:48:05;32.80;99.90
14317;DHT22;7242;50.858;6.586;2023-06-22T08:51:06;32.50;99.90
14317;DHT22;7242;50.858;6.586;2023-06-22T08:54:06;32.20;99.90
14317;DHT22;7242;50.858;6.586;2023-06-22T09:03:16;31.50;99.90
14317;DHT22;7242;50.858;6.586;2023-06-22T09:06:17;31.30;99.90
14317;DHT22;7242;50.858;6.586;2023-06-22T09:12:21;30.80;99.90
14317;DHT22;7242;50.858;6.586;2023-06-22T09:18:27;30.20;99.90
14317;DHT22;7242;50.858;6.586;2023-06-22T09:21:27;30.10;99.90
14317;DHT22;7242;50.858;6.586;2023-06-22T09:24:28;30.00;99.90
14317;DHT22;7242;50.858;6.586;2023-06-22T09:27:29;30.20;99.90
14317;DHT22;7242;50.858;6.586;2023-06-22T09:33:31;30.40;99.90
14317;DHT22;7242;50.858;6.586;2023-06-22T09:36:31;30.60;99.90
14317;DHT22;7242;50.858;6.586;2023-06-22T09:42:33;30.30;99.90
14317;DHT22;7242;50.858;6.586;2023-06-22T09:48:35;30.10;99.90
14317;DHT22;7242;50.858;6.586;2023-06-22T09:51:36;29.80;99.90
14317;DHT22;7242;50.858;6.586;2023-06-22T09:57:38;28.90;99.90
14317;DHT22;7242;50.858;6.586;2023-06-22T10:03:41;28.40;99.90
14317;DHT22;7242;50.858;6.586;2023-06-22T10:12:54;27.70;99.90
14317;DHT22;7242;50.858;6.586;2023-06-22T10:24:58;27.10;99.90
14317;DHT22;7242;50.858;6.586;2023-06-22T10:27:59;27.00;99.90
14317;DHT22;7242;50.858;6.586;2023-06-22T10:34:00;26.50;99.90
14317;DHT22;7242;50.858;6.586;2023-06-22T10:40:03;26.00;99.90
14317;DHT22;7242;50.858;6.586;2023-06-22T10:49:07;25.50;99.90
14317;DHT22;7242;50.858;6.586;2023-06-22T10:52:08;25.40;99.90
14317;DHT22;7242;50.858;6.586;2023-06-22T10:55:09;25.40;99.90
14317;DHT22;7242;50.858;6.586;2023-06-22T11:07:15;25.30;99.90
14317;DHT22;7242;50.858;6.586;2023-06-22T11:10:16;25.30;99.90
14317;DHT22;7242;50.858;6.586;2023-06-22T11:16:18;25.20;99.90
14317;DHT22;7242;50.858;6.586;2023-06-22T11:19:18;25.10;99.90
14317;DHT22;7242;50.858;6.586;2023-06-22T11:25:20;24.80;99.90
14317;DHT22;7242;50.858;6.586;2023-06-22T11:28:21;24.70;99.90
14317;DHT22;7242;50.858;6.586;2023-06-22T11:34:22;24.90;99.90
14317;DHT22;7242;50.858;6.586;2023-06-22T11:46:26;25.20;99.90
14317;DHT22;7242;50.858;6.586;2023-06-22T11:49:27;25.40;99.90
14317;DHT22;7242;50.858;6.586;2023-06-22T11:55:29;25.70;99.90
14317;DHT22;7242;50.858;6.586;2023-06-22T12:01:31;25.70;99.90
14317;DHT22;7242;50.858;6.586;2023-06-22T12:04:34;25.70;99.90
14317;DHT22;7242;50.858;6.586;2023-06-22T12:10:35;25.80;99.90
14317;DHT22;7242;50.858;6.586;2023-06-22T12:19:38;25.90;99.90
14317;DHT22;7242;50.858;6.586;2023-06-22T12:25:40;25.80;99.90
14317;DHT22;7242;50.858;6.586;2023-06-22T12:28:40;25.70;99.90
14317;DHT22;7242;50.858;6.586;2023-06-22T12:34:43;25.60;99.90
14317;DHT22;7242;50.858;6.586;2023-06-22T12:46:48;25.80;99.90
14317;DHT22;7242;50.858;6.586;2023-06-22T12:49:49;25.90;99.90
14317;DHT22;7242;50.858;6.586;2023-06-22T13:01:53;26.00;99.90
14317;DHT22;7242;50.858;6.586;2023-06-22T13:07:55;26.20;99.90
14317;DHT22;7242;50.858;6.586;2023-06-22T13:13:57;26.40;99.90
14317;DHT22;7242;50.858;6.586;2023-06-22T13:16:58;26.40;99.90
14317;DHT22;7242;50.858;6.586;2023-06-22T13:22:59;26.30;99.90
14317;DHT22;7242;50.858;6.586;2023-06-22T13:26:00;26.20;99.90
14317;DHT22;7242;50.858;6.586;2023-06-22T13:32:02;26.20;99.90
14317;DHT22;7242;50.858;6.586;2023-06-22T13:38:04;26.10;99.90
14317;DHT22;7242;50.858;6.586;2023-06-22T13:44:06;26.20;99.90
14317;DHT22;7242;50.858;6.586;2023-06-22T13:50:08;26.20;99.90
14317;DHT22;7242;50.858;6.586;2023-06-22T13:56:10;26.40;99.90
14317;DHT22;7242;50.858;6.586;2023-06-22T14:11:15;26.00;99.90
14317;DHT22;7242;50.858;6.586;2023-06-22T14:17:17;26.00;99.90
14317;DHT22;7242;50.858;6.586;2023-06-22T14:23:19;26.20;99.90
14317;DHT22;7242;50.858;6.586;2023-06-22T14:26:19;26.20;99.90
14317;DHT22;7242;50.858;6.586;2023-06-22T14:29:25;26.20;99.90
14317;DHT22;7242;50.858;6.586;2023-06-22T14:47:34;26.20;99.90
14317;DHT22;7242;50.858;6.586;2023-06-22T14:59:38;25.80;99.90
14317;DHT22;7242;50.858;6.586;2023-06-22T15:02:40;25.60;99.90
14317;DHT22;7242;50.858;6.586;2023-06-22T15:08:42;25.30;99.90
14317;DHT22;7242;50.858;6.586;2023-06-22T15:11:43;25.20;99.90
14317;DHT22;7242;50.858;6.586;2023-06-22T15:17:45;24.90;99.90
14317;DHT22;7242;50.858;6.586;2023-06-22T15:26:49;24.50;99.90
14317;DHT22;7242;50.858;6.586;2023-06-22T15:44:57;23.40;99.90
14317;DHT22;7242;50.858;6.586;2023-06-22T15:47:58;23.20;99.90
14317;DHT22;7242;50.858;6.586;2023-06-22T16:03:07;22.10;99.90
14317;DHT22;7242;50.858;6.586;2023-06-22T16:06:08;22.10;99.90
14317;DHT22;7242;50.858;6.586;2023-06-22T16:36:19;21.90;99.90
14317;DHT22;7242;50.858;6.586;2023-06-22T16:42:21;22.20;99.90
14317;DHT22;7242;50.858;6.586;2023-06-22T16:48:23;22.40;99.90
14317;DHT22;7242;50.858;6.586;2023-06-22T16:51:24;22.50;99.90
14317;DHT22;7242;50.858;6.586;2023-06-22T16:57:26;22.70;99.90
14317;DHT22;7242;50.858;6.586;2023-06-22T17:09:32;22.80;99.90
14317;DHT22;7242;50.858;6.586;2023-06-22T17:12:34;22.90;99.90
14317;DHT22;7242;50.858;6.586;2023-06-22T17:15:36;23.00;99.90
14317;DHT22;7242;50.858;6.586;2023-06-22T17:18:38;23.00;99.90
14317;DHT22;7242;50.858;6.586;2023-06-22T17:27:47;23.00;99.90
14317;DHT22;7242;50.858;6.586;2023-06-22T17:34:14;22.90;99.90
14317;DHT22;7242;50.858;6.586;2023-06-22T17:37:15;22.80;99.90
14317;DHT22;7242;50.858;6.586;2023-06-22T17:40:17;22.60;99.90
14317;DHT22;7242;50.858;6.586;2023-06-22T17:43:19;22.50;99.90
14317;DHT22;7242;50.858;6.586;2023-06-22T17:49:27;22.30;99.90
14317;DHT22;7242;50.858;6.586;2023-06-22T17:55:33;21.90;99.90
14317;DHT22;7242;50.858;6.586;2023-06-22T18:01:37;21.90;99.90
14317;DHT22;7242;50.858;6.586;2023-06-22T18:10:41;21.70;99.90
14317;DHT22;7242;50.858;6.586;2023-06-22T18:34:58;21.20;99.90
14317;DHT22;7242;50.858;6.586;2023-06-22T18:44:04;20.70;99.90
14317;DHT22;7242;50.858;6.586;2023-06-22T19:09:21;19.90;99.90
14317;DHT22;7242;50.858;6.586;2023-06-22T19:27:50;19.50;99.90
14317;DHT22;7242;50.858;6.586;2023-06-22T19:31:02;19.50;99.90
14317;DHT22;7242;50.858;6.586;2023-06-22T19:34:04;19.50;99.90
14317;DHT22;7242;50.858;6.586;2023-06-22T19:58:23;19.00;99.90
14317;DHT22;7242;50.858;6.586;2023-06-22T20:04:25;19.00;99.90
14317;DHT22;7242;50.858;6.586;2023-06-22T20:07:34;18.90;99.90
14317;DHT22;7242;50.858;6.586;2023-06-22T20:13:47;18.90;99.90
14317;DHT22;7242;50.858;6.586;2023-06-22T20:22:56;18.90;99.90
14317;DHT22;7242;50.858;6.586;2023-06-22T20:35:15;19.00;99.90
14317;DHT22;7242;50.858;6.586;2023-06-22T20:53:22;19.00;99.90
14317;DHT22;7242;50.858;6.586;2023-06-22T20:59:24;18.80;99.90
14317;DHT22;7242;50.858;6.586;2023-06-22T21:02:25;18.90;99.90
14317;DHT22;7242;50.858;6.586;2023-06-22T21:05:25;18.90;99.90
14317;DHT22;7242;50.858;6.586;2023-06-22T21:11:27;18.90;99.90
14317;DHT22;7242;50.858;6.586;2023-06-22T21:17:29;18.90;99.90
14317;DHT22;7242;50.858;6.586;2023-06-22T21:20:29;18.90;99.90
14317;DHT22;7242;50.858;6.586;2023-06-22T21:26:31;18.90;99.90
14317;DHT22;7242;50.858;6.586;2023-06-22T21:29:32;18.90;99.90
14317;DHT22;7242;50.858;6.586;2023-06-22T21:35:33;18.80;99.90
14317;DHT22;7242;50.858;6.586;2023-06-22T21:38:34;18.80;99.90
14317;DHT22;7242;50.858;6.586;2023-06-22T21:44:36;18.80;99.90
14317;DHT22;7242;50.858;6.586;2023-06-22T21:47:36;18.80;99.90
14317;DHT22;7242;50.858;6.586;2023-06-22T21:53:38;18.80;99.90
14317;DHT22;7242;50.858;6.586;2023-06-22T21:59:40;18.90;99.90
14317;DHT22;7242;50.858;6.586;2023-06-22T22:02:41;18.70;99.90
14317;DHT22;7242;50.858;6.586;2023-06-22T22:08:42;18.90;99.90
14317;DHT22;7242;50.858;6.586;2023-06-22T22:11:43;18.70;99.90
14317;DHT22;7242;50.858;6.586;2023-06-22T22:20:47;18.90;99.90
14317;DHT22;7242;50.858;6.586;2023-06-22T22:26:49;18.90;99.90
14317;DHT22;7242;50.858;6.586;2023-06-22T22:29:50;18.70;99.90
14317;DHT22;7242;50.858;6.586;2023-06-22T22:35:51;19.10;99.90
14317;DHT22;7242;50.858;6.586;2023-06-22T22:47:55;18.90;99.90
14317;DHT22;7242;50.858;6.586;2023-06-22T22:50:57;19.10;99.90
14317;DHT22;7242;50.858;6.586;2023-06-22T22:53:57;19.10;99.90
14317;DHT22;7242;50.858;6.586;2023-06-22T22:56:58;18.90;99.90
14317;DHT22;7242;50.858;6.586;2023-06-22T23:03:00;18.90;99.90
14317;DHT22;7242;50.858;6.586;2023-06-22T23:06:02;18.90;99.90
14317;DHT22;7242;50.858;6.586;2023-06-22T23:15:07;18.90;99.90
14317;DHT22;7242;50.858;6.586;2023-06-22T23:21:09;18.70;99.90
14317;DHT22;7242;50.858;6.586;2023-06-22T23:27:11;18.80;99.90
14317;DHT22;7242;50.858;6.586;2023-06-22T23:30:15;18.90;99.90
14317;DHT22;7242;50.858;6.586;2023-06-22T23:33:17;18.80;99.90
14317;DHT22;7242;50.858;6.586;2023-06-22T23:45:21;18.90;99.90
14317;DHT22;7242;50.858;6.586;2023-06-22T23:51:23;18.90;99.90
14317;DHT22;7242;50.858;6.586;2023-06-22T23:54:27;19.00;99.90
14317;DHT22;7242;50.858;6.586;2023-06-22T23:57:28;18.90;99.90
